Time;durP1;ratioP1;P1;durP2;ratioP2;P2;SDS_P1;SDS_P2;PMS_P1;PMS_P2;Temp;Humidity;BMP_temperature;BMP_pressure;BME280_temperature;BME280_humidity;BME280_pressure;Samples;Min_cycle;Max_cycle;Signal;HPM_P1;HPM_P2
2023/10/27 00:01:20;;;;;;;8.10;7.30;;;12.20;99.90;;;;;;5072425;28;20840;-81
2023/10/27 00:03:48;;;;;;;9.50;7.57;;;12.20;99.90;;;;;;5063162;28;21048;-81
2023/10/27 00:06:15;;;;;;;7.97;6.80;;;12.20;99.90;;;;;;5075859;28;20452;-81
2023/10/27 00:08:42;;;;;;;8.03;7.20;;;12.20;99.90;;;;;;5075660;28;20462;-81
2023/10/27 00:11:08;;;;;;;8.20;7.00;;;12.10;99.90;;;;;;5073161;28;20460;-80
2023/10/27 00:13:40;;;;;;;8.87;7.17;;;12.10;99.90;;;;;;5075421;28;21113;-81
2023/10/27 00:16:09;;;;;;;9.30;7.80;;;12.10;99.90;;;;;;5072119;28;20536;-82
2023/10/27 00:18:36;;;;;;;9.40;8.40;;;12.00;99.90;;;;;;5066895;28;20457;-79
2023/10/27 00:21:05;;;;;;;8.93;7.33;;;12.00;99.90;;;;;;5073409;28;20460;-81
2023/10/27 00:23:32;;;;;;;8.03;7.23;;;11.90;99.90;;;;;;5076179;28;20528;-82
2023/10/27 00:25:59;;;;;;;9.23;7.50;;;11.90;99.90;;;;;;5077963;28;20828;-81
2023/10/27 00:28:26;;;;;;;7.80;6.90;;;11.80;99.90;;;;;;5076397;28;20530;-82
2023/10/27 00:30:53;;;;;;;10.30;6.97;;;11.80;99.90;;;;;;5070731;28;20453;-82
2023/10/27 00:33:20;;;;;;;8.83;7.40;;;11.70;99.90;;;;;;5062408;28;20633;-80
2023/10/27 00:35:50;;;;;;;8.30;6.70;;;11.70;99.90;;;;;;5075663;28;20946;-81
2023/10/27 00:38:19;;;;;;;11.77;8.30;;;11.60;99.90;;;;;;5075352;28;20835;-80
2023/10/27 00:40:46;;;;;;;11.27;8.43;;;11.60;99.90;;;;;;5070583;28;20886;-80
2023/10/27 00:43:16;;;;;;;8.97;7.80;;;11.50;99.90;;;;;;5061571;28;20507;-81
2023/10/27 00:45:46;;;;;;;10.10;8.10;;;11.50;99.90;;;;;;5057129;28;20461;-82
2023/10/27 00:48:13;;;;;;;9.63;7.07;;;11.50;99.90;;;;;;5055410;28;20452;-81
2023/10/27 00:50:40;;;;;;;9.33;7.33;;;11.50;99.90;;;;;;5056842;28;20447;-82
2023/10/27 00:53:07;;;;;;;9.70;8.60;;;11.40;99.90;;;;;;5076378;28;20857;-82
2023/10/27 00:55:36;;;;;;;8.17;6.67;;;11.40;99.90;;;;;;5076546;28;20455;-82
2023/10/27 00:58:04;;;;;;;8.93;7.43;;;11.40;99.90;;;;;;5075849;28;20549;-82
2023/10/27 01:00:32;;;;;;;11.50;7.47;;;11.40;99.90;;;;;;5068270;28;20451;-80
2023/10/27 01:02:59;;;;;;;8.23;7.33;;;11.40;99.90;;;;;;5076320;28;20470;-81
2023/10/27 01:05:26;;;;;;;8.70;7.30;;;11.40;99.90;;;;;;5077833;28;20807;-82
2023/10/27 01:07:55;;;;;;;10.47;8.10;;;11.40;99.90;;;;;;5076567;28;20458;-82
2023/10/27 01:10:22;;;;;;;13.93;9.13;;;11.40;99.90;;;;;;5078124;28;20517;-82
2023/10/27 01:12:51;;;;;;;11.53;8.57;;;11.40;99.90;;;;;;5073303;28;20830;-82
2023/10/27 01:15:18;;;;;;;10.27;9.17;;;11.40;99.90;;;;;;5072845;28;20490;-82
2023/10/27 01:17:44;;;;;;;10.67;9.37;;;11.40;99.90;;;;;;5079073;28;20539;-79
2023/10/27 01:20:12;;;;;;;13.17;9.57;;;11.40;99.90;;;;;;5085960;28;20451;-80
2023/10/27 01:22:43;;;;;;;10.13;8.87;;;11.40;99.90;;;;;;5073661;28;20477;-82
2023/10/27 01:25:10;;;;;;;12.43;8.83;;;11.50;99.90;;;;;;5074622;28;20807;-80
2023/10/27 01:27:37;;;;;;;11.93;8.70;;;11.50;99.90;;;;;;5071660;28;20463;-82
2023/10/27 01:30:04;;;;;;;10.57;8.80;;;11.50;99.90;;;;;;5058536;28;20459;-81
2023/10/27 01:32:31;;;;;;;11.20;9.33;;;11.50;99.90;;;;;;5073197;28;20459;-81
2023/10/27 01:34:58;;;;;;;10.63;8.90;;;11.50;99.90;;;;;;5074371;28;20459;-80
2023/10/27 01:37:25;;;;;;;11.80;10.20;;;11.60;99.90;;;;;;5073949;28;20443;-82
2023/10/27 01:39:53;;;;;;;10.77;8.30;;;11.60;99.90;;;;;;5074473;28;20455;-82
2023/10/27 01:42:22;;;;;;;14.17;10.37;;;11.70;99.90;;;;;;5066297;28;20460;-81
2023/10/27 01:44:49;;;;;;;11.53;9.40;;;11.70;99.90;;;;;;5072503;28;20582;-81
2023/10/27 01:47:15;;;;;;;11.20;9.50;;;11.70;99.90;;;;;;5074380;28;20817;-78
2023/10/27 01:49:42;;;;;;;11.70;8.87;;;11.80;99.90;;;;;;5066304;28;20451;-82
2023/10/27 01:52:09;;;;;;;13.63;9.10;;;11.70;99.90;;;;;;5060555;28;20544;-82
2023/10/27 01:54:36;;;;;;;11.83;8.77;;;11.80;99.90;;;;;;5054673;28;20473;-80
2023/10/27 01:57:04;;;;;;;11.47;8.77;;;11.80;99.90;;;;;;5057975;28;20446;-80
2023/10/27 01:59:31;;;;;;;11.90;9.67;;;11.80;99.90;;;;;;5058362;28;20551;-83
2023/10/27 02:01:58;;;;;;;11.47;9.70;;;11.80;99.90;;;;;;5069805;28;20455;-81
2023/10/27 02:04:25;;;;;;;12.73;10.57;;;11.80;99.90;;;;;;5066733;28;20502;-81
2023/10/27 02:06:52;;;;;;;12.60;9.60;;;11.90;99.90;;;;;;5075306;28;20455;-82
2023/10/27 02:09:19;;;;;;;13.13;10.23;;;11.80;99.90;;;;;;5073253;28;20768;-82
2023/10/27 02:11:46;;;;;;;11.17;8.50;;;11.90;99.90;;;;;;5070390;28;20637;-82
2023/10/27 02:14:14;;;;;;;17.80;10.40;;;11.90;99.90;;;;;;5073520;28;20493;-82
2023/10/27 02:16:41;;;;;;;13.70;9.60;;;11.90;99.90;;;;;;5073882;28;21038;-81
2023/10/27 02:19:08;;;;;;;12.00;10.27;;;11.90;99.90;;;;;;5069070;28;20459;-82
2023/10/27 02:21:35;;;;;;;14.83;10.33;;;11.90;99.90;;;;;;5070653;28;20456;-81
2023/10/27 02:24:02;;;;;;;12.43;9.67;;;11.90;99.90;;;;;;5067972;28;20511;-81
2023/10/27 02:26:29;;;;;;;13.83;9.50;;;11.90;99.90;;;;;;5074625;28;20815;-80
2023/10/27 02:28:56;;;;;;;12.60;9.70;;;11.90;99.90;;;;;;5074354;28;20457;-81
2023/10/27 02:31:24;;;;;;;12.20;10.30;;;12.00;99.90;;;;;;5074309;28;20459;-82
2023/10/27 02:33:51;;;;;;;11.30;9.57;;;12.00;99.90;;;;;;5068291;28;20465;-81
2023/10/27 02:36:18;;;;;;;11.50;9.10;;;12.00;99.90;;;;;;5068083;28;21027;-81
2023/10/27 02:38:44;;;;;;;11.60;8.80;;;12.00;99.90;;;;;;5074366;28;20981;-81
2023/10/27 02:41:12;;;;;;;12.50;8.97;;;12.00;99.90;;;;;;5069565;28;20475;-80
2023/10/27 02:43:39;;;;;;;11.47;8.30;;;12.00;99.90;;;;;;5069601;28;20476;-82
2023/10/27 02:46:06;;;;;;;9.10;8.20;;;12.00;99.90;;;;;;5074905;28;20822;-81
2023/10/27 02:48:34;;;;;;;9.87;8.67;;;12.10;99.90;;;;;;5073965;28;20975;-81
2023/10/27 02:51:01;;;;;;;11.20;7.73;;;12.00;99.90;;;;;;5073458;28;20807;-82
2023/10/27 02:53:27;;;;;;;13.53;8.43;;;12.00;99.90;;;;;;5071534;28;20470;-81
2023/10/27 02:55:54;;;;;;;12.87;8.57;;;12.10;99.90;;;;;;5065990;28;20452;-82
2023/10/27 02:58:21;;;;;;;8.90;7.20;;;12.10;99.90;;;;;;5074265;28;20460;-81
2023/10/27 03:00:48;;;;;;;10.63;7.07;;;12.10;99.90;;;;;;5075396;28;20832;-82
2023/10/27 03:03:16;;;;;;;9.13;6.83;;;12.00;99.90;;;;;;5074086;28;21084;-82
2023/10/27 03:05:44;;;;;;;10.20;8.03;;;12.10;99.90;;;;;;5071756;28;20491;-82
2023/10/27 03:08:11;;;;;;;11.03;7.30;;;12.10;99.90;;;;;;5079285;28;20544;-82
2023/10/27 03:10:37;;;;;;;9.03;7.20;;;12.10;99.90;;;;;;5079795;28;20479;-79
2023/10/27 03:13:08;;;;;;;8.10;6.77;;;12.00;99.90;;;;;;5079991;28;20833;-82
2023/10/27 03:15:35;;;;;;;7.73;6.53;;;12.10;99.90;;;;;;5071273;28;20444;-81
2023/10/27 03:18:01;;;;;;;10.07;6.13;;;12.10;99.90;;;;;;5088813;28;20466;-79
2023/10/27 03:20:29;;;;;;;8.00;6.27;;;12.10;99.90;;;;;;5090566;28;20467;-81
2023/10/27 03:22:57;;;;;;;6.27;5.40;;;12.10;99.90;;;;;;5080780;28;20480;-82
2023/10/27 03:25:24;;;;;;;13.17;6.70;;;12.10;99.90;;;;;;5075616;28;20488;-80
2023/10/27 03:27:50;;;;;;;10.17;6.90;;;12.10;99.90;;;;;;5084040;28;20949;-81
2023/10/27 03:30:17;;;;;;;9.50;6.60;;;12.10;99.90;;;;;;5087770;28;20459;-82
2023/10/27 03:32:44;;;;;;;10.43;6.10;;;12.20;99.90;;;;;;5083019;28;20497;-81
2023/10/27 03:35:11;;;;;;;11.13;6.20;;;12.20;99.90;;;;;;5076857;28;20525;-79
2023/10/27 03:37:38;;;;;;;10.00;6.20;;;12.10;99.90;;;;;;5074347;28;20456;-80
2023/10/27 03:40:07;;;;;;;10.40;6.10;;;12.20;99.90;;;;;;5076011;28;20451;-80
2023/10/27 03:42:34;;;;;;;7.23;5.50;;;12.10;99.90;;;;;;5069246;28;20459;-81
2023/10/27 03:45:01;;;;;;;7.50;5.60;;;12.20;99.90;;;;;;5076190;28;20990;-80
2023/10/27 03:47:28;;;;;;;10.23;5.43;;;12.20;99.90;;;;;;5071696;28;20955;-81
2023/10/27 03:49:55;;;;;;;12.90;6.10;;;12.10;99.90;;;;;;5050604;28;20905;-81
2023/10/27 03:52:22;;;;;;;10.73;6.27;;;12.20;99.90;;;;;;5057836;28;20454;-80
2023/10/27 03:54:48;;;;;;;8.27;6.67;;;12.20;99.90;;;;;;5061056;28;20498;-79
2023/10/27 03:57:17;;;;;;;9.53;6.70;;;12.20;99.90;;;;;;5052755;28;20789;-78
2023/10/27 03:59:43;;;;;;;9.33;5.70;;;12.20;99.90;;;;;;5055713;28;20452;-79
2023/10/27 04:02:11;;;;;;;7.97;5.63;;;12.20;99.90;;;;;;5059942;28;20451;-79
2023/10/27 04:04:38;;;;;;;8.67;5.80;;;12.20;99.90;;;;;;5064715;28;20578;-79
2023/10/27 04:07:07;;;;;;;7.40;6.17;;;12.20;99.90;;;;;;5057128;28;20449;-80
2023/10/27 04:09:34;;;;;;;9.10;6.03;;;12.20;99.90;;;;;;5054829;28;20940;-79
2023/10/27 04:12:01;;;;;;;10.20;6.70;;;12.20;99.90;;;;;;5055597;28;20448;-83
2023/10/27 04:14:29;;;;;;;15.23;6.50;;;12.10;99.90;;;;;;5057434;28;20488;-82
2023/10/27 04:16:56;;;;;;;10.47;6.17;;;12.10;99.90;;;;;;5065313;28;20459;-84
2023/10/27 04:19:23;;;;;;;9.40;5.90;;;12.10;99.90;;;;;;5069665;28;20823;-82
2023/10/27 04:21:50;;;;;;;7.70;5.90;;;12.10;99.90;;;;;;5075756;28;20487;-82
2023/10/27 04:24:17;;;;;;;11.03;6.33;;;12.10;99.90;;;;;;5060681;28;20518;-79
2023/10/27 04:26:45;;;;;;;8.60;5.33;;;12.10;99.90;;;;;;5053755;28;20464;-81
2023/10/27 04:29:12;;;;;;;11.00;5.87;;;12.10;99.90;;;;;;5053719;28;20564;-79
2023/10/27 04:31:40;;;;;;;8.30;5.90;;;12.10;99.90;;;;;;5075458;28;20455;-80
2023/10/27 04:34:08;;;;;;;13.33;6.60;;;12.10;99.90;;;;;;5063101;28;20480;-79
2023/10/27 04:36:36;;;;;;;6.87;5.37;;;12.10;99.90;;;;;;5072121;28;20454;-80
2023/10/27 04:39:03;;;;;;;6.00;5.20;;;12.10;99.90;;;;;;5074710;28;20448;-81
2023/10/27 04:41:30;;;;;;;8.43;5.70;;;12.10;99.90;;;;;;5074879;28;20819;-79
2023/10/27 04:43:57;;;;;;;12.97;6.60;;;12.10;99.90;;;;;;5073214;28;20476;-80
2023/10/27 04:46:27;;;;;;;7.80;5.60;;;12.10;99.90;;;;;;5075826;28;20487;-78
2023/10/27 04:48:57;;;;;;;9.83;5.27;;;12.10;99.90;;;;;;5075137;28;20454;-81
2023/10/27 04:51:24;;;;;;;7.43;5.30;;;12.10;99.90;;;;;;5075775;28;20553;-79
2023/10/27 04:53:51;;;;;;;12.00;7.50;;;12.10;99.90;;;;;;5075499;28;20564;-80
2023/10/27 04:56:18;;;;;;;9.80;5.37;;;12.10;99.90;;;;;;5072782;28;20794;-79
2023/10/27 04:58:46;;;;;;;10.93;5.87;;;12.00;99.90;;;;;;5070735;28;20511;-80
2023/10/27 05:01:13;;;;;;;7.23;4.83;;;12.10;99.90;;;;;;5068256;28;20957;-81
2023/10/27 05:03:40;;;;;;;7.63;4.63;;;12.10;99.90;;;;;;5071633;28;20471;-81
2023/10/27 05:06:12;;;;;;;23.00;5.83;;;12.10;99.90;;;;;;5074651;28;20847;-80
2023/10/27 05:08:39;;;;;;;10.13;5.47;;;12.00;99.90;;;;;;5071119;28;20994;-81
2023/10/27 05:11:05;;;;;;;9.10;4.93;;;12.10;99.90;;;;;;5053097;28;20455;-82
2023/10/27 05:13:32;;;;;;;7.43;3.93;;;12.00;99.90;;;;;;5058038;28;20492;-80
2023/10/27 05:15:59;;;;;;;8.63;4.10;;;12.00;99.90;;;;;;5053701;28;20942;-81
2023/10/27 05:18:27;;;;;;;7.30;4.60;;;12.00;99.90;;;;;;5068704;28;20453;-81
2023/10/27 05:20:54;;;;;;;5.03;4.00;;;12.00;99.90;;;;;;5053270;28;20460;-80
2023/10/27 05:23:22;;;;;;;6.10;3.90;;;12.00;99.90;;;;;;5053466;28;20548;-80
2023/10/27 05:25:50;;;;;;;8.40;3.80;;;12.00;99.90;;;;;;5057456;28;20501;-80
2023/10/27 05:28:17;;;;;;;8.67;4.20;;;12.00;99.90;;;;;;5050853;28;20460;-80
2023/10/27 05:30:46;;;;;;;6.17;4.00;;;12.00;99.90;;;;;;5064046;28;20987;-80
2023/10/27 05:33:13;;;;;;;6.60;3.63;;;12.00;99.90;;;;;;5062632;28;20564;-81
2023/10/27 05:35:40;;;;;;;8.70;4.10;;;12.00;99.90;;;;;;5071639;28;20446;-80
2023/10/27 05:38:07;;;;;;;6.27;3.67;;;12.00;99.90;;;;;;5068107;28;20459;-80
2023/10/27 05:40:35;;;;;;;6.77;3.73;;;12.00;99.90;;;;;;5062747;28;20467;-83
2023/10/27 05:43:02;;;;;;;6.67;3.47;;;12.00;99.90;;;;;;5063863;28;20563;-82
2023/10/27 05:45:28;;;;;;;6.37;3.63;;;12.00;99.90;;;;;;5065678;28;20479;-79
2023/10/27 05:47:55;;;;;;;5.80;3.50;;;12.00;99.90;;;;;;5057803;28;20462;-80
2023/10/27 05:50:22;;;;;;;9.00;3.70;;;12.00;99.90;;;;;;5067215;28;20453;-81
2023/10/27 05:52:49;;;;;;;13.30;4.40;;;12.00;99.90;;;;;;5066517;28;21274;-82
2023/10/27 05:55:16;;;;;;;7.93;3.87;;;12.00;99.90;;;;;;5074069;28;20451;-83
2023/10/27 05:57:44;;;;;;;5.57;3.40;;;12.00;99.90;;;;;;5059768;28;20462;-82
2023/10/27 06:00:11;;;;;;;5.00;3.50;;;12.00;99.90;;;;;;5059037;28;20953;-80
2023/10/27 06:02:38;;;;;;;6.97;3.50;;;12.00;99.90;;;;;;5057593;28;20548;-81
2023/10/27 06:05:06;;;;;;;7.77;4.20;;;12.00;99.90;;;;;;5072614;28;20485;-81
2023/10/27 06:07:33;;;;;;;7.13;3.73;;;12.00;99.90;;;;;;5060640;28;20551;-81
2023/10/27 06:10:00;;;;;;;9.10;4.00;;;12.00;99.90;;;;;;5061572;28;20448;-82
2023/10/27 06:12:27;;;;;;;8.70;4.50;;;12.00;99.90;;;;;;5066507;28;20446;-80
2023/10/27 06:14:55;;;;;;;7.87;4.00;;;12.00;99.90;;;;;;5057995;28;20444;-80
2023/10/27 06:17:22;;;;;;;5.10;3.90;;;12.00;99.90;;;;;;5060376;28;20452;-81
2023/10/27 06:19:49;;;;;;;5.87;4.40;;;11.90;99.90;;;;;;5062827;28;20506;-82
2023/10/27 06:22:15;;;;;;;7.13;4.13;;;11.90;99.90;;;;;;5066701;28;20444;-81
2023/10/27 06:24:42;;;;;;;7.10;4.20;;;12.00;99.90;;;;;;5063093;28;20483;-81
2023/10/27 06:27:09;;;;;;;8.30;4.70;;;11.90;99.90;;;;;;5073236;28;20982;-81
2023/10/27 06:29:36;;;;;;;8.80;4.87;;;11.90;99.90;;;;;;5070536;28;20483;-80
2023/10/27 06:32:04;;;;;;;7.43;4.70;;;11.90;99.90;;;;;;5074178;28;20459;-81
2023/10/27 06:34:31;;;;;;;10.70;4.80;;;12.00;99.90;;;;;;5055076;28;20984;-81
2023/10/27 06:36:59;;;;;;;8.13;4.20;;;11.90;99.90;;;;;;5065203;28;20467;-81
2023/10/27 06:39:25;;;;;;;8.23;4.53;;;11.90;99.90;;;;;;5068591;28;20797;-78
2023/10/27 06:41:52;;;;;;;8.60;4.63;;;11.90;99.90;;;;;;5066816;28;20470;-78
2023/10/27 06:44:19;;;;;;;7.70;4.60;;;12.00;99.90;;;;;;5066716;28;20468;-78
2023/10/27 06:46:46;;;;;;;9.77;4.87;;;12.00;99.90;;;;;;5056448;28;20496;-80
2023/10/27 06:49:14;;;;;;;10.13;4.93;;;12.00;99.90;;;;;;5056762;28;20460;-80
2023/10/27 06:51:41;;;;;;;11.37;4.60;;;12.00;99.90;;;;;;5071082;28;20814;-80
2023/10/27 06:54:08;;;;;;;9.73;4.10;;;11.90;99.90;;;;;;5061235;28;20472;-80
2023/10/27 06:56:35;;;;;;;8.23;4.43;;;11.90;99.90;;;;;;5052440;28;20444;-79
2023/10/27 06:59:02;;;;;;;6.70;4.30;;;11.90;99.90;;;;;;5051569;28;20944;-80
2023/10/27 07:01:29;;;;;;;7.40;4.20;;;11.90;99.90;;;;;;5052061;28;20993;-80
2023/10/27 07:03:56;;;;;;;6.30;4.90;;;11.90;99.90;;;;;;5052077;28;21035;-79
2023/10/27 07:06:25;;;;;;;12.33;5.53;;;11.90;99.90;;;;;;5051420;28;20484;-80
2023/10/27 07:08:51;;;;;;;7.20;5.00;;;11.90;99.90;;;;;;5050686;28;21073;-79
2023/10/27 07:11:18;;;;;;;10.67;7.13;;;11.90;99.90;;;;;;5048190;28;20476;-79
2023/10/27 07:13:45;;;;;;;11.10;5.50;;;11.90;99.90;;;;;;5052127;28;20476;-80
2023/10/27 07:16:12;;;;;;;12.07;5.97;;;11.80;99.90;;;;;;5057705;28;20447;-79
2023/10/27 07:18:39;;;;;;;13.60;6.30;;;11.90;99.90;;;;;;5052486;28;20453;-80
2023/10/27 07:21:06;;;;;;;7.87;5.03;;;11.90;99.90;;;;;;5064289;28;20463;-80
2023/10/27 07:23:36;;;;;;;8.67;5.47;;;11.90;99.90;;;;;;5064436;28;20476;-80
2023/10/27 07:26:12;;;;;;;9.43;4.80;;;11.90;99.90;;;;;;5061760;28;20558;-80
2023/10/27 07:28:39;;;;;;;11.83;5.37;;;11.90;99.90;;;;;;5066228;28;20457;-80
2023/10/27 07:31:06;;;;;;;11.73;6.20;;;12.00;99.90;;;;;;5059427;28;21013;-80
2023/10/27 07:33:32;;;;;;;8.77;5.43;;;12.00;99.90;;;;;;5049265;28;20468;-80
2023/10/27 07:36:02;;;;;;;7.50;4.50;;;12.00;99.90;;;;;;5061547;28;20453;-79
2023/10/27 07:38:30;;;;;;;11.27;5.63;;;12.00;99.90;;;;;;5050004;28;20459;-80
2023/10/27 07:40:58;;;;;;;9.60;5.60;;;12.00;99.90;;;;;;5050779;28;20464;-80
2023/10/27 07:43:25;;;;;;;6.83;4.70;;;12.00;99.90;;;;;;5059681;28;20903;-80
2023/10/27 07:45:54;;;;;;;7.50;5.00;;;12.10;99.90;;;;;;5060592;28;20479;-79
2023/10/27 07:48:21;;;;;;;11.37;6.40;;;12.10;99.90;;;;;;5057015;28;20491;-80
2023/10/27 07:50:48;;;;;;;11.83;5.50;;;12.10;99.90;;;;;;5063269;28;20446;-79
2023/10/27 07:53:15;;;;;;;11.67;5.87;;;12.10;99.90;;;;;;5069981;28;20470;-79
2023/10/27 07:55:45;;;;;;;7.07;5.17;;;12.10;99.90;;;;;;5074438;28;20459;-80
2023/10/27 07:58:13;;;;;;;7.80;5.57;;;12.10;99.90;;;;;;5055701;28;20455;-80
2023/10/27 08:00:40;;;;;;;8.63;5.90;;;12.10;99.90;;;;;;5066199;28;20459;-80
2023/10/27 08:03:06;;;;;;;7.83;4.93;;;12.10;99.90;;;;;;5074022;28;20478;-79
2023/10/27 08:05:33;;;;;;;11.30;6.83;;;12.10;99.90;;;;;;5070674;28;20500;-80
2023/10/27 08:08:01;;;;;;;9.63;5.50;;;12.20;99.90;;;;;;5073804;28;20454;-80
2023/10/27 08:10:28;;;;;;;7.70;4.97;;;12.20;99.90;;;;;;5074181;28;20461;-79
2023/10/27 08:12:56;;;;;;;6.33;5.00;;;12.20;99.90;;;;;;5074076;28;20478;-80
2023/10/27 08:15:24;;;;;;;7.83;5.13;;;12.30;99.90;;;;;;5064291;28;20455;-80
2023/10/27 08:17:51;;;;;;;7.40;5.20;;;12.20;99.90;;;;;;5071779;28;20533;-80
2023/10/27 08:20:18;;;;;;;10.50;5.17;;;12.30;99.90;;;;;;5067512;28;20464;-79
2023/10/27 08:22:45;;;;;;;10.93;5.90;;;12.30;99.90;;;;;;5050448;28;20482;-80
2023/10/27 08:25:13;;;;;;;6.67;4.70;;;12.30;99.90;;;;;;5056885;28;20486;-79
2023/10/27 08:27:40;;;;;;;13.53;5.27;;;12.30;99.90;;;;;;5051657;28;20455;-80
2023/10/27 08:30:08;;;;;;;7.13;5.57;;;12.30;99.90;;;;;;5050602;28;20445;-80
2023/10/27 08:32:36;;;;;;;12.00;6.27;;;12.30;99.90;;;;;;5059848;28;20462;-79
2023/10/27 08:35:03;;;;;;;6.67;5.03;;;12.30;99.90;;;;;;5055243;28;20887;-79
2023/10/27 08:37:30;;;;;;;8.10;4.20;;;12.30;99.90;;;;;;5051705;28;20477;-78
2023/10/27 08:39:57;;;;;;;9.00;5.27;;;12.30;99.90;;;;;;5055695;28;20448;-80
2023/10/27 08:42:26;;;;;;;6.90;4.50;;;12.30;99.90;;;;;;5047408;28;20461;-80
2023/10/27 08:44:54;;;;;;;9.83;4.90;;;12.40;99.90;;;;;;5055334;28;20494;-79
2023/10/27 08:47:21;;;;;;;7.40;4.83;;;12.40;99.90;;;;;;5055353;28;21005;-78
2023/10/27 08:49:49;;;;;;;5.43;4.53;;;12.40;99.90;;;;;;5056506;28;20460;-80
2023/10/27 08:52:17;;;;;;;8.90;4.57;;;12.40;99.90;;;;;;5053609;28;20460;-79
2023/10/27 08:54:45;;;;;;;7.50;4.10;;;12.40;99.90;;;;;;5057218;28;20461;-80
2023/10/27 08:57:12;;;;;;;7.40;4.20;;;12.40;99.90;;;;;;5056163;28;20855;-78
2023/10/27 08:59:39;;;;;;;6.03;3.80;;;12.40;99.90;;;;;;5072157;28;20450;-80
2023/10/27 09:02:06;;;;;;;7.13;4.50;;;12.50;99.90;;;;;;5068953;28;20485;-80
2023/10/27 09:04:33;;;;;;;11.07;5.63;;;12.50;99.90;;;;;;5060134;28;20484;-79
2023/10/27 09:07:02;;;;;;;6.60;4.07;;;12.40;99.90;;;;;;5064967;28;21051;-81
2023/10/27 09:09:30;;;;;;;7.20;4.40;;;12.40;99.90;;;;;;5063955;28;20454;-81
2023/10/27 09:11:57;;;;;;;8.17;4.70;;;12.50;99.90;;;;;;5074317;28;21015;-81
2023/10/27 09:14:30;;;;;;;5.37;4.00;;;12.50;99.90;;;;;;5073741;28;20469;-81
2023/10/27 09:17:06;;;;;;;6.60;4.00;;;12.50;99.90;;;;;;5074033;28;20451;-81
2023/10/27 09:19:33;;;;;;;7.97;3.87;;;12.50;99.90;;;;;;5065092;28;20448;-81
2023/10/27 09:22:05;;;;;;;6.10;3.40;;;12.50;99.90;;;;;;5065263;28;20459;-80
2023/10/27 09:24:32;;;;;;;5.37;2.57;;;12.50;99.90;;;;;;5074121;28;20980;-80
2023/10/27 09:27:00;;;;;;;5.13;2.43;;;12.40;99.90;;;;;;5073794;28;20492;-81
2023/10/27 09:29:30;;;;;;;5.27;2.40;;;12.50;99.90;;;;;;5072620;28;20460;-81
2023/10/27 09:31:57;;;;;;;2.53;1.50;;;12.40;99.90;;;;;;5074336;28;20474;-82
2023/10/27 09:34:25;;;;;;;4.60;2.50;;;12.50;99.90;;;;;;5075382;28;20480;-81
2023/10/27 09:36:53;;;;;;;4.43;1.70;;;12.40;99.90;;;;;;5067710;28;20447;-81
2023/10/27 09:39:23;;;;;;;4.40;2.10;;;12.40;99.90;;;;;;5067279;28;20462;-80
2023/10/27 09:41:58;;;;;;;5.87;2.67;;;12.40;99.90;;;;;;5064510;28;20462;-81
2023/10/27 09:44:34;;;;;;;4.77;1.93;;;12.30;99.90;;;;;;5069148;28;20473;-81
2023/10/27 09:47:03;;;;;;;3.70;1.67;;;12.20;99.90;;;;;;5074239;28;20543;-82
2023/10/27 09:49:34;;;;;;;7.10;3.00;;;12.00;99.90;;;;;;5074656;28;20456;-81
2023/10/27 09:52:07;;;;;;;4.93;2.40;;;12.00;99.90;;;;;;5070058;28;20456;-81
2023/10/27 09:54:35;;;;;;;4.87;1.77;;;12.00;99.90;;;;;;5066433;28;20822;-82
2023/10/27 09:57:04;;;;;;;2.43;1.63;;;12.00;99.90;;;;;;5075099;28;20498;-82
2023/10/27 09:59:32;;;;;;;5.07;2.23;;;12.00;99.90;;;;;;5073760;28;20889;-82
2023/10/27 10:02:03;;;;;;;3.40;2.53;;;12.10;99.90;;;;;;5067634;28;20465;-81
2023/10/27 10:04:57;;;;;;;6.00;3.10;;;12.10;99.90;;;;;;5074215;28;20831;-81
2023/10/27 10:07:31;;;;;;;3.53;2.57;;;12.10;99.90;;;;;;5069069;28;20479;-81
2023/10/27 10:10:00;;;;;;;6.23;2.67;;;12.10;99.90;;;;;;5070757;28;20451;-81
2023/10/27 10:12:27;;;;;;;3.63;3.20;;;12.20;99.90;;;;;;5072645;28;20456;-82
2023/10/27 10:14:55;;;;;;;4.17;3.13;;;12.20;99.90;;;;;;5072948;28;20454;-81
2023/10/27 10:17:39;;;;;;;3.40;2.87;;;12.30;99.90;;;;;;5073083;28;20452;-80
2023/10/27 10:20:06;;;;;;;2.80;2.50;;;12.30;99.90;;;;;;5072919;28;20461;-81
2023/10/27 10:22:52;;;;;;;3.13;2.77;;;12.30;99.90;;;;;;5073647;28;20559;-82
2023/10/27 10:25:30;;;;;;;3.77;2.53;;;12.50;99.90;;;;;;5070845;28;20455;-82
2023/10/27 10:28:25;;;;;;;3.17;2.73;;;12.50;99.90;;;;;;5071973;28;20493;-81
2023/10/27 10:31:23;;;;;;;3.30;2.20;;;12.60;99.90;;;;;;5072948;28;20999;-81
2023/10/27 10:34:10;;;;;;;2.70;2.33;;;12.70;99.90;;;;;;5073406;28;20968;-82
2023/10/27 10:36:40;;;;;;;3.67;2.60;;;12.70;99.90;;;;;;5073708;28;20942;-80
2023/10/27 10:39:10;;;;;;;2.90;2.57;;;12.80;99.90;;;;;;5073151;28;20833;-81
2023/10/27 10:42:00;;;;;;;3.90;2.37;;;12.70;99.90;;;;;;5070849;28;20816;-82
2023/10/27 10:44:29;;;;;;;3.90;2.80;;;12.70;99.90;;;;;;5063385;28;20536;-82
2023/10/27 10:46:56;;;;;;;4.87;3.93;;;12.70;99.90;;;;;;5074060;28;20517;-81
2023/10/27 10:49:23;;;;;;;4.50;3.07;;;12.60;99.90;;;;;;5072853;28;20544;-80
2023/10/27 10:51:53;;;;;;;5.33;3.73;;;12.60;99.90;;;;;;5074373;28;20456;-81
2023/10/27 10:54:20;;;;;;;4.20;3.27;;;12.50;99.90;;;;;;5074084;28;20477;-81
2023/10/27 10:56:47;;;;;;;4.93;3.77;;;12.70;99.90;;;;;;5073091;28;20949;-80
2023/10/27 10:59:23;;;;;;;3.37;3.00;;;12.60;99.90;;;;;;5068982;28;20456;-82
2023/10/27 11:01:56;;;;;;;7.33;4.00;;;12.60;99.90;;;;;;5074621;28;20465;-81
2023/10/27 11:04:29;;;;;;;5.70;3.00;;;12.50;99.90;;;;;;5074085;28;20474;-80
2023/10/27 11:07:02;;;;;;;2.90;2.43;;;12.50;99.90;;;;;;5063118;28;20484;-83
2023/10/27 11:09:31;;;;;;;5.70;3.57;;;12.50;99.90;;;;;;5068472;28;20487;-81
2023/10/27 11:11:58;;;;;;;3.73;2.70;;;12.50;99.90;;;;;;5074131;28;20465;-82
2023/10/27 11:14:26;;;;;;;3.60;2.43;;;12.60;99.90;;;;;;5074258;28;20493;-82
2023/10/27 11:17:05;;;;;;;3.50;3.20;;;12.70;99.90;;;;;;5068319;28;20461;-82
2023/10/27 11:19:33;;;;;;;3.20;2.60;;;12.70;99.90;;;;;;5069581;28;20805;-82
2023/10/27 11:22:00;;;;;;;3.60;3.20;;;12.60;99.90;;;;;;5073509;28;20909;-82
2023/10/27 11:24:27;;;;;;;4.60;3.63;;;12.60;99.90;;;;;;5073901;28;20563;-81
2023/10/27 11:26:53;;;;;;;4.60;3.93;;;12.70;99.90;;;;;;5076133;28;20496;-82
2023/10/27 11:29:20;;;;;;;4.43;3.60;;;12.70;99.90;;;;;;5076978;28;20464;-81
2023/10/27 11:31:49;;;;;;;7.40;4.10;;;12.70;99.90;;;;;;5077360;28;20454;-81
2023/10/27 11:34:21;;;;;;;4.30;3.90;;;12.70;99.90;;;;;;5061010;28;20505;-82
2023/10/27 11:37:02;;;;;;;4.70;4.30;;;12.80;99.90;;;;;;5076911;28;20519;-81
2023/10/27 11:39:37;;;;;;;4.97;4.47;;;12.90;99.90;;;;;;5078573;28;20456;-80
2023/10/27 11:42:04;;;;;;;5.10;3.90;;;13.10;99.90;;;;;;5078184;28;20439;-80
2023/10/27 11:44:36;;;;;;;7.60;5.03;;;13.10;99.90;;;;;;5077354;28;20471;-82
2023/10/27 11:47:07;;;;;;;5.97;4.40;;;13.10;99.90;;;;;;5077320;28;20482;-82
2023/10/27 11:49:33;;;;;;;5.50;4.67;;;13.20;99.90;;;;;;5073639;28;20880;-81
2023/10/27 11:52:01;;;;;;;4.97;4.50;;;13.10;99.90;;;;;;5076967;28;20868;-83
2023/10/27 11:54:28;;;;;;;5.23;4.70;;;13.10;99.90;;;;;;5078095;28;20472;-81
2023/10/27 11:56:55;;;;;;;5.40;4.90;;;13.00;99.90;;;;;;5061861;28;20439;-81
2023/10/27 11:59:25;;;;;;;5.17;4.67;;;13.00;99.90;;;;;;5076612;28;20498;-81
2023/10/27 12:01:52;;;;;;;5.20;4.70;;;13.10;99.90;;;;;;5076850;28;20545;-81
2023/10/27 12:04:20;;;;;;;5.73;5.13;;;13.20;99.90;;;;;;5076930;28;20539;-81
2023/10/27 12:06:47;;;;;;;5.90;4.90;;;13.30;99.90;;;;;;5071686;28;20483;-80
2023/10/27 12:09:13;;;;;;;6.00;5.10;;;13.30;99.90;;;;;;5076890;28;20481;-81
2023/10/27 12:11:42;;;;;;;6.30;4.30;;;13.40;99.90;;;;;;5077094;28;20462;-81
2023/10/27 12:14:10;;;;;;;5.77;5.10;;;13.30;99.90;;;;;;5076658;28;20497;-82
2023/10/27 12:16:37;;;;;;;10.13;4.50;;;13.30;99.90;;;;;;5076987;28;20457;-81
2023/10/27 12:19:04;;;;;;;6.80;5.70;;;13.20;99.90;;;;;;5059658;28;20459;-81
2023/10/27 12:21:32;;;;;;;8.90;5.20;;;13.20;99.90;;;;;;5076636;28;20463;-82
2023/10/27 12:23:58;;;;;;;6.17;5.03;;;13.00;99.90;;;;;;5071400;28;20484;-82
2023/10/27 12:26:25;;;;;;;6.97;6.20;;;13.00;99.90;;;;;;5076169;28;20472;-82
2023/10/27 12:28:52;;;;;;;6.03;4.97;;;12.90;99.90;;;;;;5075535;28;20534;-82
2023/10/27 12:31:19;;;;;;;6.80;5.80;;;12.80;99.90;;;;;;5075869;28;20470;-82
2023/10/27 12:33:46;;;;;;;6.27;5.03;;;12.70;99.90;;;;;;5075014;28;20511;-80
2023/10/27 12:36:13;;;;;;;9.73;6.83;;;12.70;99.90;;;;;;5075841;28;20813;-81
2023/10/27 12:38:44;;;;;;;8.03;5.37;;;12.70;99.90;;;;;;5073309;28;20459;-81
2023/10/27 12:41:13;;;;;;;6.73;6.10;;;12.70;99.90;;;;;;5059776;28;20463;-81
2023/10/27 12:43:41;;;;;;;5.63;4.73;;;12.70;99.90;;;;;;5074974;28;20898;-80
2023/10/27 12:46:09;;;;;;;15.23;6.27;;;12.70;99.90;;;;;;5075431;28;20462;-81
2023/10/27 12:48:36;;;;;;;7.33;5.90;;;12.70;99.90;;;;;;5066820;28;20490;-80